Historique des stations

Station météo de Ménétréols-sous-Vatan

Altitude de la station : 192 m







Données météorologiques pour le 28/11/2021
Date
Heure
Températures Humidité Point de rosée Vitesse
du vent
Direction Rafales Windchill Pression Pluviométrie
Cumul
Date
Heure
Températures Humidité Point de rosée Vitesse
du vent
Direction Rafales Windchill Pression Pluviométrie
Cumul
28/11/2021 20:460.4 °C91 %-1.1 °C8 km/hESE10 km/h-2.2 1006 hPa-
28/11/2021 20:450.3 °C91 %-1.1 °C6 km/hE16 km/h-1.1 1006 hPa-
28/11/2021 20:310.3 °C91 %-1.1 °C8 km/hESE10 km/h-2.2 1007 hPa-
28/11/2021 20:300.3 °C91 %-1.1 °C8 km/hESE16 km/h-2.2 1007 hPa-
28/11/2021 20:160.4 °C90 %-1.1 °C5 km/hESE8 km/h-0.6 1006 hPa-
28/11/2021 20:150.4 °C90 %-1.1 °C5 km/hESE16 km/h-0.6 1006 hPa-
28/11/2021 20:010.7 °C90 %-0.6 °C6 km/hE11 km/h-1.1 1006 hPa-
28/11/2021 20:000.7 °C90 %-0.6 °C6 km/hE16 km/h-1.1 1006 hPa-
28/11/2021 19:461.1 °C89 %-0.6 °C10 km/hESE13 km/h-1.7 1006 hPa-
28/11/2021 19:451.1 °C89 %-0.6 °C11 km/hESE16 km/h-1.7 1006 hPa-
28/11/2021 19:311.2 °C89 %-0.6 °C10 km/hESE13 km/h-1.7 1006 hPa-
28/11/2021 19:301.2 °C89 %-0.6 °C10 km/hESE16 km/h-1.7 1006 hPa-
28/11/2021 19:161.1 °C90 %-0.6 °C8 km/hESE14 km/h-1.7 1006 hPa-
28/11/2021 19:151.1 °C90 %-0.6 °C8 km/hESE16 km/h-1.7 1006 hPa-
28/11/2021 19:001.1 °C91 %0.0 °C10 km/hESE11 km/h-1.7 1006 hPa-
28/11/2021 18:591.1 °C91 %0.0 °C10 km/hE16 km/h-1.7 1006 hPa-
28/11/2021 18:451.2 °C90 %0.0 °C8 km/hE11 km/h-1.7 1006 hPa-
28/11/2021 18:441.2 °C90 %0.0 °C8 km/hESE16 km/h-1.7 1006 hPa-
28/11/2021 18:301.3 °C89 %-0.6 °C13 km/hE13 km/h-2.2 1006 hPa-
28/11/2021 18:291.3 °C89 %-0.6 °C6 km/hE16 km/h-0.6 1006 hPa-
28/11/2021 18:151.6 °C88 %0.0 °C10 km/hESE13 km/h-1.1 1005 hPa-
28/11/2021 18:141.6 °C88 %0.0 °C6 km/hESE16 km/h0.0 1005 hPa-
28/11/2021 18:001.9 °C87 %0.0 °C14 km/hESE16 km/h-1.7 1005 hPa-
28/11/2021 17:591.9 °C87 %0.0 °C10 km/hE16 km/h-1.1 1005 hPa-
28/11/2021 17:452.2 °C86 %0.0 °C10 km/hESE16 km/h-0.6 1005 hPa-
28/11/2021 17:442.3 °C86 %0.0 °C10 km/hESE16 km/h-0.6 1005 hPa-
28/11/2021 17:302.3 °C86 %0.0 °C8 km/hE14 km/h0.0 1005 hPa-
28/11/2021 17:292.3 °C86 %0.0 °C11 km/hE14 km/h-0.6 1005 hPa-
28/11/2021 17:152.2 °C89 %0.6 °C8 km/hESE11 km/h0.0 1005 hPa-
28/11/2021 17:142.3 °C89 %0.6 °C8 km/hESE11 km/h0.0 1005 hPa-
28/11/2021 17:002.4 °C89 %0.6 °C5 km/hSE11 km/h1.1 1005 hPa5.2 mm
28/11/2021 16:592.4 °C89 %1.1 °C6 km/hESE29 km/h0.6 1005 hPa5.2 mm
28/11/2021 16:452.7 °C88 %1.1 °C6 km/hSE10 km/h1.1 1005 hPa5.2 mm
28/11/2021 16:442.7 °C88 %1.1 °C8 km/hE29 km/h0.6 1005 hPa5.2 mm
28/11/2021 16:303.2 °C87 %1.1 °C10 km/hESE14 km/h0.6 1005 hPa5.2 mm
28/11/2021 16:293.2 °C87 %1.1 °C10 km/hESE29 km/h0.6 1005 hPa5.2 mm
28/11/2021 16:153.8 °C87 %1.7 °C6 km/hESE14 km/h2.2 1005 hPa5.2 mm
28/11/2021 16:143.8 °C87 %1.7 °C8 km/hSSE29 km/h1.7 1005 hPa5.2 mm
28/11/2021 16:003.9 °C89 %2.2 °C6 km/hENE14 km/h2.2 1004 hPa5.2 mm
28/11/2021 15:593.9 °C88 %2.2 °C10 km/hE29 km/h1.1 1004 hPa5.2 mm
28/11/2021 15:454.1 °C88 %2.2 °C10 km/hE14 km/h1.1 1004 hPa5.2 mm
28/11/2021 15:444.1 °C88 %2.2 °C11 km/hESE29 km/h1.1 1004 hPa5.2 mm
28/11/2021 15:303.9 °C87 %2.2 °C11 km/hESE16 km/h1.1 1004 hPa5.2 mm
28/11/2021 15:293.9 °C87 %2.2 °C11 km/hE29 km/h1.1 1004 hPa5.2 mm
28/11/2021 15:153.8 °C87 %1.7 °C8 km/hESE18 km/h1.7 1004 hPa5.2 mm
28/11/2021 15:143.8 °C88 %2.2 °C14 km/hESE29 km/h0.6 1004 hPa5.2 mm
28/11/2021 15:003.7 °C90 %2.2 °C11 km/hE18 km/h1.1 1004 hPa5.2 mm
28/11/2021 14:593.7 °C90 %2.2 °C10 km/hESE29 km/h1.1 1004 hPa5.2 mm
28/11/2021 14:453.3 °C93 %2.2 °C10 km/hESE29 km/h0.6 1005 hPa5.2 mm
28/11/2021 14:303.3 °C93 %2.2 °C8 km/hESE29 km/h1.1 1004 hPa5.2 mm
28/11/2021 14:153.1 °C94 %2.2 °C8 km/hSE29 km/h1.1 1004 hPa5.2 mm
28/11/2021 14:003.2 °C93 %2.2 °C10 km/hSSO29 km/h0.6 1004 hPa5 mm
28/11/2021 13:463.4 °C93 %2.2 °C6 km/hSE16 km/h1.7 1004 hPa4.8 mm
28/11/2021 13:453.4 °C93 %2.2 °C11 km/hESE29 km/h0.6 1004 hPa4.8 mm
28/11/2021 13:313.3 °C94 %2.8 °C6 km/hE16 km/h1.7 1004 hPa4.8 mm
28/11/2021 13:303.3 °C94 %2.2 °C6 km/hE29 km/h1.7 1004 hPa4.8 mm
28/11/2021 13:163.1 °C95 %2.2 °C11 km/hE16 km/h0.6 1004 hPa4.8 mm
28/11/2021 13:153.0 °C95 %2.2 °C16 km/hE29 km/h-1.1 1004 hPa4.8 mm
28/11/2021 13:012.7 °C95 %2.2 °C10 km/hESE16 km/h0.0 1004 hPa4.8 mm
28/11/2021 13:002.7 °C95 %2.2 °C14 km/hE29 km/h-0.6 1004 hPa4.8 mm
28/11/2021 12:462.6 °C95 %1.7 °C14 km/hE16 km/h-0.6 1004 hPa4.8 mm
28/11/2021 12:452.6 °C95 %1.7 °C14 km/hE29 km/h-0.6 1004 hPa4.8 mm
28/11/2021 12:312.5 °C95 %1.7 °C13 km/hE16 km/h-0.6 1004 hPa4.8 mm
28/11/2021 12:302.5 °C95 %1.7 °C10 km/hESE29 km/h0.0 1004 hPa4.8 mm
28/11/2021 12:162.4 °C95 %1.7 °C13 km/hESE16 km/h-1.1 1004 hPa4.8 mm
28/11/2021 12:152.4 °C95 %1.7 °C10 km/hENE29 km/h-0.6 1004 hPa4.8 mm
28/11/2021 12:012.3 °C95 %1.7 °C10 km/hSE18 km/h-0.6 1004 hPa4.8 mm
28/11/2021 12:002.3 °C95 %1.7 °C13 km/hESE29 km/h-1.1 1004 hPa4.8 mm
28/11/2021 11:452.4 °C94 %1.7 °C16 km/hE18 km/h-1.7 1004 hPa4.6 mm
28/11/2021 11:442.4 °C94 %1.7 °C13 km/hSE29 km/h-1.1 1004 hPa4.6 mm
28/11/2021 11:302.7 °C94 %1.7 °C3 km/hESE16 km/h1.7 1004 hPa4.6 mm
28/11/2021 11:292.7 °C94 %1.7 °C10 km/hESE29 km/h0.0 1004 hPa4.6 mm
28/11/2021 11:152.9 °C93 %2.2 °C10 km/hE16 km/h0.0 1004 hPa4.4 mm
28/11/2021 11:142.9 °C93 %2.2 °C13 km/hE29 km/h-0.6 1004 hPa4.4 mm
28/11/2021 11:002.9 °C94 %2.2 °C10 km/hE18 km/h0.0 1004 hPa4.4 mm
28/11/2021 10:592.9 °C94 %2.2 °C11 km/hESE29 km/h0.0 1004 hPa4.4 mm
28/11/2021 10:452.8 °C94 %2.2 °C14 km/hESE16 km/h-0.6 1004 hPa4.4 mm
28/11/2021 10:442.8 °C94 %2.2 °C11 km/hESE29 km/h0.0 1004 hPa4.4 mm
28/11/2021 10:302.6 °C94 %1.7 °C8 km/hE16 km/h0.6 1004 hPa4.4 mm
28/11/2021 10:292.6 °C94 %1.7 °C10 km/hSE29 km/h0.0 1004 hPa4.4 mm
28/11/2021 10:152.5 °C95 %1.7 °C13 km/hE13 km/h-0.6 1004 hPa4.4 mm
28/11/2021 10:142.5 °C95 %1.7 °C5 km/hSSE29 km/h1.7 1004 hPa4.4 mm
28/11/2021 10:002.4 °C95 %1.7 °C6 km/hSE16 km/h0.6 1004 hPa4.4 mm
28/11/2021 09:592.4 °C95 %1.7 °C11 km/hE29 km/h-0.6 1004 hPa4.4 mm
28/11/2021 09:452.3 °C95 %1.7 °C11 km/hE14 km/h-0.6 1003 hPa4.4 mm
28/11/2021 09:442.3 °C95 %1.7 °C11 km/hE29 km/h-0.6 1003 hPa4.4 mm
28/11/2021 09:302.2 °C96 %1.7 °C8 km/hESE16 km/h0.0 1003 hPa4.4 mm
28/11/2021 09:292.2 °C96 %1.7 °C8 km/hESE29 km/h0.0 1003 hPa4.4 mm
28/11/2021 09:152.2 °C96 %1.7 °C13 km/hESE14 km/h-1.1 1003 hPa4.4 mm
28/11/2021 09:142.1 °C96 %1.7 °C8 km/hESE29 km/h0.0 1003 hPa4.4 mm
28/11/2021 08:591.9 °C96 %1.7 °C11 km/hE29 km/h-0.6 1003 hPa4.4 mm
28/11/2021 08:451.8 °C96 %1.1 °C11 km/hESE14 km/h-1.1 1003 hPa4.4 mm
28/11/2021 08:441.8 °C96 %1.1 °C8 km/hESE29 km/h-1.1 1003 hPa4.4 mm
28/11/2021 08:301.8 °C95 %1.1 °C14 km/hESE16 km/h-1.7 1003 hPa4.4 mm
28/11/2021 08:291.8 °C95 %1.1 °C11 km/hESE29 km/h-1.1 1003 hPa4.4 mm
28/11/2021 08:151.8 °C95 %1.1 °C11 km/hE16 km/h-1.1 1003 hPa4.4 mm
28/11/2021 08:141.8 °C95 %1.1 °C11 km/hNNE29 km/h-1.1 1002 hPa4.4 mm
28/11/2021 08:001.9 °C95 %1.1 °C10 km/hE14 km/h-1.1 1002 hPa4.4 mm
28/11/2021 07:591.9 °C95 %1.1 °C14 km/hESE29 km/h-1.7 1002 hPa4.4 mm
28/11/2021 07:461.9 °C95 %1.1 °C13 km/hE18 km/h-1.1 1002 hPa4.2 mm
28/11/2021 07:451.9 °C95 %1.1 °C11 km/hE29 km/h-0.6 1002 hPa4.2 mm
28/11/2021 07:311.9 °C95 %1.1 °C16 km/hE18 km/h-2.8 1002 hPa4.2 mm
28/11/2021 07:301.9 °C95 %1.1 °C11 km/hESE29 km/h-1.1 1002 hPa4.2 mm
28/11/2021 07:151.9 °C95 %1.1 °C5 km/hSE16 km/h1.1 1002 hPa4 mm
28/11/2021 07:141.9 °C95 %1.1 °C11 km/hE29 km/h-0.6 1002 hPa4 mm
28/11/2021 07:001.9 °C95 %1.1 °C10 km/hESE14 km/h-1.1 1002 hPa4 mm
28/11/2021 06:581.9 °C95 %1.1 °C8 km/hE29 km/h-1.1 1002 hPa4 mm
28/11/2021 06:451.9 °C95 %1.1 °C10 km/hSE14 km/h-1.1 1002 hPa3.6 mm
28/11/2021 06:441.9 °C95 %1.1 °C8 km/hNE29 km/h-1.1 1002 hPa3.6 mm
28/11/2021 06:301.8 °C95 %1.1 °C3 km/hE14 km/h0.6 1002 hPa3.6 mm
28/11/2021 06:291.8 °C94 %1.1 °C8 km/hE29 km/h-1.1 1002 hPa3.6 mm
28/11/2021 06:152.0 °C94 %1.1 °C10 km/hESE19 km/h-0.6 1001 hPa3.4 mm
28/11/2021 06:142.0 °C94 %1.1 °C11 km/hENE29 km/h-0.6 1002 hPa3.4 mm
28/11/2021 06:002.3 °C93 %1.1 °C16 km/hESE16 km/h-1.7 1002 hPa3.2 mm
28/11/2021 05:592.3 °C93 %1.1 °C13 km/hESE29 km/h-1.1 1001 hPa3.2 mm
28/11/2021 05:452.4 °C93 %1.7 °C10 km/hESE29 km/h-0.6 1001 hPa3.2 mm
28/11/2021 05:302.5 °C93 %1.7 °C13 km/hESE29 km/h-0.6 1001 hPa3.2 mm
28/11/2021 05:152.5 °C93 %1.7 °C10 km/hESE29 km/h0.0 1001 hPa3.2 mm
28/11/2021 05:002.5 °C93 %1.7 °C8 km/hESE29 km/h0.6 1001 hPa3.2 mm
28/11/2021 04:462.6 °C93 %1.7 °C14 km/hESE16 km/h-0.6 1001 hPa3.2 mm
28/11/2021 04:452.6 °C93 %1.7 °C13 km/hSE29 km/h-0.6 1001 hPa3.2 mm
28/11/2021 04:312.6 °C93 %1.7 °C14 km/hE16 km/h-0.6 1001 hPa3.2 mm
28/11/2021 04:302.6 °C93 %1.7 °C11 km/hESE29 km/h0.0 1001 hPa3.2 mm
28/11/2021 04:162.7 °C93 %1.7 °C11 km/hESE16 km/h0.0 1001 hPa3.2 mm
28/11/2021 04:152.7 °C93 %1.7 °C11 km/hE29 km/h0.0 1001 hPa3.2 mm
28/11/2021 04:012.7 °C93 %1.7 °C11 km/hESE18 km/h0.0 1001 hPa3.2 mm
28/11/2021 04:002.7 °C93 %1.7 °C14 km/hESE29 km/h-0.6 1001 hPa3.2 mm
28/11/2021 03:462.7 °C93 %1.7 °C16 km/hESE19 km/h-1.1 1001 hPa3.2 mm
28/11/2021 03:452.7 °C93 %1.7 °C8 km/hESE29 km/h0.6 1001 hPa3.2 mm
28/11/2021 03:312.8 °C93 %1.7 °C8 km/hESE16 km/h0.6 1001 hPa3.2 mm
28/11/2021 03:302.8 °C93 %1.7 °C10 km/hE29 km/h0.0 1001 hPa3.2 mm
28/11/2021 03:162.8 °C93 %1.7 °C11 km/hSE16 km/h0.0 1001 hPa3.2 mm
28/11/2021 03:152.9 °C93 %1.7 °C16 km/hESE29 km/h-1.1 1001 hPa3.2 mm
28/11/2021 03:002.9 °C93 %1.7 °C13 km/hE16 km/h-0.6 1001 hPa3.2 mm
28/11/2021 02:592.9 °C93 %1.7 °C8 km/hSE29 km/h0.6 1001 hPa3.2 mm
28/11/2021 02:452.9 °C93 %2.2 °C11 km/hESE18 km/h0.0 1001 hPa3.2 mm
28/11/2021 02:442.9 °C93 %2.2 °C10 km/hESE29 km/h0.0 1001 hPa3.2 mm
28/11/2021 02:303.0 °C93 %2.2 °C14 km/hESE21 km/h-0.6 1000 hPa3.2 mm
28/11/2021 02:293.0 °C93 %2.2 °C8 km/hESE29 km/h0.6 1000 hPa3.2 mm
28/11/2021 02:152.9 °C93 %2.2 °C13 km/hSSE16 km/h-0.6 1000 hPa3.2 mm
28/11/2021 02:143.0 °C93 %2.2 °C11 km/hSE29 km/h0.0 1000 hPa3.2 mm
28/11/2021 02:002.9 °C94 %2.2 °C14 km/hESE19 km/h-0.6 1000 hPa3.2 mm
28/11/2021 01:592.9 °C94 %2.2 °C11 km/hE29 km/h0.0 1000 hPa3.2 mm
28/11/2021 01:453.0 °C94 %2.2 °C13 km/hENE21 km/h-0.6 1000 hPa3.2 mm
28/11/2021 01:443.0 °C94 %2.2 °C14 km/hESE29 km/h-0.6 1000 hPa3.2 mm
28/11/2021 01:302.9 °C95 %2.2 °C14 km/hENE21 km/h-0.6 1000 hPa3.2 mm
28/11/2021 01:292.9 °C95 %2.2 °C14 km/hE29 km/h-0.6 1000 hPa3.2 mm
28/11/2021 01:152.9 °C95 %2.2 °C13 km/hENE23 km/h-0.6 1000 hPa3.2 mm
28/11/2021 01:142.9 °C95 %2.2 °C10 km/hE29 km/h0.0 1000 hPa3.2 mm
28/11/2021 01:002.9 °C94 %2.2 °C16 km/hESE21 km/h-1.1 1000 hPa3 mm
28/11/2021 00:592.9 °C94 %2.2 °C16 km/hESE29 km/h-1.1 1000 hPa3 mm
28/11/2021 00:453.2 °C94 %2.2 °C11 km/hE21 km/h0.6 1000 hPa2.6 mm
28/11/2021 00:443.2 °C94 %2.2 °C11 km/hESE29 km/h0.6 1000 hPa2.6 mm
28/11/2021 00:303.3 °C94 %2.2 °C14 km/hESE23 km/h0.0 1000 hPa2.2 mm
28/11/2021 00:293.3 °C94 %2.2 °C13 km/hS29 km/h0.6 1000 hPa2.2 mm
28/11/2021 00:153.3 °C94 %2.8 °C13 km/hESE19 km/h0.6 999 hPa2.2 mm
28/11/2021 00:143.3 °C94 %2.8 °C14 km/hESE29 km/h0.0 1000 hPa2.2 mm
28/11/2021 00:003.3 °C95 %2.8 °C16 km/hESE29 km/h-0.6 999 hPa2.2 mm


Minima :

Température : 0.3 °C
Humidité : 86 %
Point de rosée : -1.1 °C
Vent moyen : 3 km/h
Windchill : -2.8
Pression atm. : 999 hPa
Maxima :

Température : 4.1 °C
Humidité : 96 %
Point de rosée : 2.8 °C
Vent moyen : 16 km/h
Windchill : 2.2
Pression atm. : 1007 hPa
Rafales max : 29 km/h
Cumul de pluie sur 24H : 5.2 mm

Ménétréols-sous-Vatan est une commune du département Indre (36).
La station météorologique du réseau de l'association la plus proche de Ménétréols-sous-Vatan est celle de Luçay-le-Libre



Icône Facebook Association Météo Centre Icône Twitter Association Météo Centre Icône Chaîne Youtube Association Météo Centre Icône contact Association Météo Centre Icône Insta Association Météo Centre